• Join FlightAware (Why Join?)
  • Login
  • US Flag 
10:16PM EST


 

Airport Tracker/Info


-or-


 

Live Flight TrackerFlight Track Log ✈ SWA378 ✈ 24-Jun-2013 ✈ KSJC - KONT

Flight Track Log - Related Links

Times and Time Zones

All times are in EDT time to prevent confusion due to time zone crossing. See the SWA378 flight status page for this flight to view local times or setup timezone preferences in your user account.

Time Position Orientation Groundspeed Altitude Reporting Facility
EDT Latitude Longitude Course Direction KTS MPH feet Rate Location/Type
11:10AM 37.3833 -121.9500 322° Northwest 158 182 1,200  Level Northern Cal TRACON
11:11AM 37.4167 -121.9833 322° Northwest 227 261 2,400 1,860 Climbing Northern Cal TRACON
11:11AM 37.4333 -121.9333 67° East 247 284 4,600 1,740 Climbing Northern Cal TRACON
11:13AM 37.3833 -121.8500 127° Southeast 239 275 6,000 1,860 Climbing Northern Cal TRACON
11:13AM 37.3500 -121.8167 142° Southeast 258 297 8,400 2,520 Climbing Northern Cal TRACON
11:14AM 37.2833 -121.7333 135° Southeast 320 368 10,900 2,400 Climbing Northern Cal TRACON
11:15AM 37.2000 -121.6500 141° Southeast 386 444 13,300 2,400 Climbing Northern Cal TRACON
11:17AM 37.0922 -121.5214 136° Southeast 398 458 16,700 2,580 Climbing Oakland Center
11:18AM 36.9994 -121.4203 139° Southeast 416 479 19,700 2,400 Climbing Oakland Center
11:19AM 36.9078 -121.3178 138° Southeast 438 504 21,700 1,860 Climbing Oakland Center
11:20AM 36.8100 -121.2128 139° Southeast 456 525 23,500 1,920 Climbing Oakland Center
11:21AM 36.7114 -121.1053 139° Southeast 468 539 25,700 1,860 Climbing Oakland Center
11:22AM 36.6108 -120.9994 140° Southeast 474 545 27,400 1,800 Climbing Oakland Center
11:23AM 36.5158 -120.8858 136° Southeast 473 544 29,400 1,620 Climbing Oakland Center
11:24AM 36.4353 -120.7525 127° Southeast 481 554 30,700 1,380 Climbing Oakland Center
11:25AM 36.3506 -120.6225 129° Southeast 484 557 32,300 1,560 Climbing Oakland Center
11:26AM 36.2686 -120.4953 129° Southeast 475 547 33,900 1,320 Climbing Oakland Center
11:27AM 36.1692 -120.3444 129° Southeast 471 542 35,000 480 Climbing Oakland Center
11:28AM 36.0864 -120.2167 129° Southeast 474 545 34,900 120 Descending Oakland Center
11:29AM 36.0039 -120.0894 129° Southeast 473 544 35,300 1,020 Climbing Oakland Center
11:30AM 35.9217 -119.9636 129° Southeast 469 540 37,000 780 Climbing Oakland Center
11:31AM 35.8394 -119.8428 130° Southeast 462 532 37,000  Level Oakland Center
11:32AM 35.7572 -119.7156 129° Southeast 469 540 37,000 -60 Level Oakland Center
11:33AM 35.6719 -119.5889 130° Southeast 478 550 36,900  Descending Oakland Center
11:34AM 35.5733 -119.4406 129° Southeast 466 536 37,000  Climbing Los Angeles Center
11:35AM 35.4919 -119.3189 129° Southeast 462 532 37,000 -240 Level Los Angeles Center
11:36AM 35.4078 -119.1958 130° Southeast 468 539 36,600 -720 Descending Los Angeles Center
11:37AM 35.3233 -119.0686 129° Southeast 478 550 35,600 -780 Descending Los Angeles Center
11:38AM 35.2397 -118.9436 129° Southeast 475 547 35,000 -360 Descending Los Angeles Center
11:39AM 35.1553 -118.8231 131° Southeast 469 540 34,900 -660 Descending Los Angeles Center
11:41AM 35.0564 -118.6794 130° Southeast 462 532 33,700 -1,440 Descending Los Angeles Center
11:42AM 34.9747 -118.5594 130° Southeast 461 531 32,000 -2,340 Descending Los Angeles Center
11:43AM 34.9011 -118.4536 130° Southeast 466 536 28,900 -2,340 Descending Los Angeles Center
11:44AM 34.8008 -118.3075 130° Southeast 471 542 27,200 -1,440 Descending Los Angeles Center
11:45AM 34.7197 -118.1919 130° Southeast 458 527 26,000 -1,800 Descending Los Angeles Center
11:46AM 34.6406 -118.0794 131° Southeast 443 510 23,600 -2,340 Descending Los Angeles Center
11:47AM 34.5817 -117.9569 120° Southeast 425 489 21,200 -2,160 Descending Los Angeles Center
11:48AM 34.5264 -117.8375 119° Southeast 412 474 19,100 -2,220 Descending Los Angeles Center
11:49AM 34.4644 -117.7022 119° Southeast 386 444 16,700 -2,280 Descending Los Angeles Center
11:50AM 34.4156 -117.5947 119° Southeast 369 425 14,500 -1,620 Descending Los Angeles Center
11:51AM 34.3722 -117.5003 119° Southeast 342 394 13,400 -1,560 Descending Los Angeles Center
11:52AM 34.3203 -117.3856 119° Southeast 325 374 11,300 -1,860 Descending Los Angeles Center
11:53AM 34.2558 -117.3281 144° Southeast 296 341 9,600 -1,620 Descending Los Angeles Center
11:54AM 34.1764 -117.3042 166° South 289 333 8,000 -1,680 Descending Los Angeles Center
11:55AM 34.1042 -117.3006 178° South 268 308 6,200 -2,040 Descending Los Angeles Center
11:56AM 34.0500 -117.3833 232° Southwest 276 318 3,900 -1,440 Descending Southern California TRACON
11:57AM 34.0500 -117.4500 270° West 193 222 3,400 -900 Descending Southern California TRACON
11:58AM 34.0500 -117.5000 270° West 155 178 2,200 -960 Descending Southern California TRACON
11:59AM 34.0500 -117.5500 270° West 138 159 1,500 -720 Descending Southern California TRACON
12:02PM 34.0500 -117.6000 270° West  Level FlightAware Approximate
12:09PM 34.0560 -117.6012 270° West  Level Estimated